createdAt,value
2022-10-29T00:00:55.661Z,79.67
2022-10-29T00:03:23.251Z,79.66
2022-10-29T00:06:06.210Z,80.60
2022-10-29T00:08:35.777Z,79.92
2022-10-29T00:11:08.849Z,79.85
2022-10-29T00:13:36.733Z,79.66
2022-10-29T00:16:09.753Z,79.87
2022-10-29T00:18:37.334Z,79.56
2022-10-29T00:21:06.354Z,79.34
2022-10-29T00:23:33.571Z,79.66
2022-10-29T00:26:02.013Z,79.34
2022-10-29T00:28:29.364Z,79.79
2022-10-29T00:30:56.288Z,79.54
2022-10-29T00:33:23.306Z,79.64
2022-10-29T00:35:58.605Z,79.67
2022-10-29T00:38:26.700Z,79.26
2022-10-29T00:40:55.582Z,79.21
2022-10-29T00:43:24.713Z,79.20
2022-10-29T00:45:56.972Z,79.14
2022-10-29T00:48:27.547Z,78.87
2022-10-29T00:50:56.719Z,78.90
2022-10-29T00:53:27.290Z,78.67
2022-10-29T00:55:54.343Z,78.82
2022-10-29T00:58:21.978Z,78.94
2022-10-29T01:00:48.954Z,78.91
2022-10-29T01:03:16.085Z,78.66
2022-10-29T01:05:45.509Z,79.27
2022-10-29T01:08:14.204Z,78.99
2022-10-29T01:10:41.047Z,78.51
2022-10-29T01:13:42.965Z,79.18
2022-10-29T01:16:09.946Z,78.13
2022-10-29T01:18:44.370Z,78.10
2022-10-29T01:21:29.748Z,78.72
2022-10-29T01:24:08.719Z,78.53
2022-10-29T01:27:05.340Z,78.62
2022-10-29T01:29:54.121Z,78.89
2022-10-29T01:32:20.966Z,78.59
2022-10-29T01:35:06.205Z,78.90
2022-10-29T01:37:53.487Z,78.82
2022-10-29T01:40:23.213Z,78.70
2022-10-29T01:42:58.040Z,78.58
2022-10-29T01:45:29.726Z,78.56
2022-10-29T01:48:02.357Z,78.54
2022-10-29T01:50:30.091Z,78.44
2022-10-29T01:52:57.684Z,78.29
2022-10-29T01:55:30.659Z,79.02
2022-10-29T01:57:57.846Z,78.74
2022-10-29T02:00:25.745Z,78.50
2022-10-29T02:03:08.254Z,78.91
2022-10-29T02:05:37.423Z,78.90
2022-10-29T02:08:25.816Z,78.67
2022-10-29T02:11:07.259Z,79.17
2022-10-29T02:14:03.289Z,79.22
2022-10-29T02:16:31.866Z,78.89
2022-10-29T02:19:00.113Z,78.81
2022-10-29T02:21:27.195Z,79.18
2022-10-29T02:23:54.085Z,78.92
2022-10-29T02:26:21.963Z,79.21
2022-10-29T02:28:48.927Z,79.11
2022-10-29T02:31:15.889Z,78.94
2022-10-29T02:33:42.813Z,79.19
2022-10-29T02:36:10.063Z,79.00
2022-10-29T02:38:37.172Z,79.60
2022-10-29T02:41:04.190Z,79.58
2022-10-29T02:43:31.179Z,79.51
2022-10-29T02:46:19.505Z,80.36
2022-10-29T02:48:47.369Z,79.67
2022-10-29T02:51:15.239Z,79.78
2022-10-29T02:53:42.572Z,79.77
2022-10-29T02:56:10.036Z,80.04
2022-10-29T02:58:37.671Z,79.85
2022-10-29T03:01:05.342Z,80.00
2022-10-29T03:03:32.461Z,79.98
2022-10-29T03:05:59.392Z,79.78
2022-10-29T03:08:27.202Z,79.94
2022-10-29T03:10:55.427Z,80.18
2022-10-29T03:13:22.314Z,80.16
2022-10-29T03:15:49.211Z,80.07
2022-10-29T03:18:16.185Z,80.25
2022-10-29T03:20:45.545Z,80.14
2022-10-29T03:23:13.372Z,79.88
2022-10-29T03:25:40.455Z,80.07
2022-10-29T03:28:07.500Z,79.88
2022-10-29T03:30:34.467Z,79.80
2022-10-29T03:33:01.342Z,79.91
2022-10-29T03:35:28.298Z,79.88
2022-10-29T03:37:55.229Z,79.36
2022-10-29T03:40:22.131Z,79.79
2022-10-29T03:42:48.980Z,79.98
2022-10-29T03:45:16.215Z,79.70
2022-10-29T03:47:43.218Z,79.62
2022-10-29T03:50:10.747Z,79.92
2022-10-29T03:52:37.647Z,79.42
2022-10-29T03:55:05.786Z,79.10
2022-10-29T03:57:32.946Z,79.65
2022-10-29T04:00:00.894Z,79.86
2022-10-29T04:02:28.071Z,79.53
2022-10-29T04:04:55.092Z,79.22
2022-10-29T04:07:22.043Z,79.44
2022-10-29T04:09:49.027Z,79.51
2022-10-29T04:12:15.889Z,79.08
2022-10-29T04:14:45.597Z,79.13
2022-10-29T04:17:13.457Z,79.33
2022-10-29T04:19:40.940Z,79.50
2022-10-29T04:30:28.629Z,79.37
2022-10-29T04:32:59.982Z,78.64
2022-10-29T04:35:28.421Z,78.81
2022-10-29T04:37:55.643Z,78.81
2022-10-29T04:40:24.693Z,78.91
2022-10-29T04:42:51.714Z,79.75
2022-10-29T04:45:18.867Z,78.71
2022-10-29T04:47:46.071Z,78.55
2022-10-29T04:50:13.495Z,79.04
2022-10-29T04:52:40.447Z,78.73
2022-10-29T04:55:07.694Z,78.99
2022-10-29T04:57:34.592Z,79.15
2022-10-29T05:00:01.529Z,79.13
2022-10-29T05:02:28.496Z,78.93
2022-10-29T05:04:55.345Z,79.36
2022-10-29T05:07:22.280Z,79.48
2022-10-29T05:09:49.231Z,79.18
2022-10-29T05:12:16.200Z,79.16
2022-10-29T05:14:43.156Z,79.22
2022-10-29T05:17:10.101Z,79.11
2022-10-29T05:19:37.030Z,78.95
2022-10-29T05:22:04.218Z,78.83
2022-10-29T05:24:31.299Z,78.77
2022-10-29T05:26:58.306Z,78.93
2022-10-29T05:29:25.316Z,78.92
2022-10-29T05:31:54.678Z,78.72
2022-10-29T05:34:21.730Z,79.19
2022-10-29T05:36:49.264Z,79.24
2022-10-29T05:39:16.403Z,78.77
2022-10-29T05:41:43.340Z,79.14
2022-10-29T05:44:10.229Z,78.44
2022-10-29T05:46:37.375Z,78.65
2022-10-29T05:49:04.670Z,78.41
2022-10-29T05:51:31.655Z,78.42
2022-10-29T05:53:58.662Z,78.05
2022-10-29T05:56:25.692Z,78.32
2022-10-29T05:58:52.737Z,78.02
2022-10-29T06:01:21.122Z,78.15
2022-10-29T06:03:48.136Z,78.37
2022-10-29T06:06:15.113Z,78.17
2022-10-29T06:08:42.147Z,78.34
2022-10-29T06:11:09.107Z,78.13
2022-10-29T06:13:36.188Z,77.60
2022-10-29T06:16:03.317Z,77.84
2022-10-29T06:18:30.470Z,77.35
2022-10-29T06:21:05.684Z,77.38
2022-10-29T06:23:32.978Z,77.52
2022-10-29T06:26:01.053Z,77.61
2022-10-29T06:28:33.586Z,77.14
2022-10-29T06:31:02.009Z,77.37
2022-10-29T06:33:29.023Z,77.62
2022-10-29T06:36:00.566Z,77.41
2022-10-29T06:38:27.576Z,77.00
2022-10-29T06:40:54.570Z,77.27
2022-10-29T06:43:23.654Z,76.83
2022-10-29T06:45:50.972Z,77.15
2022-10-29T06:48:26.349Z,77.33
2022-10-29T06:50:59.367Z,77.30
2022-10-29T06:53:27.943Z,77.37
2022-10-29T06:55:54.930Z,77.57
2022-10-29T06:58:21.822Z,77.57
2022-10-29T07:00:49.269Z,77.13
2022-10-29T07:03:18.712Z,77.57
2022-10-29T07:05:46.735Z,76.90
2022-10-29T07:08:13.776Z,77.58
2022-10-29T07:10:41.365Z,76.75
2022-10-29T07:13:08.295Z,77.11
2022-10-29T07:15:35.227Z,77.20
2022-10-29T07:18:04.812Z,77.53
2022-10-29T07:20:34.861Z,77.29
2022-10-29T07:23:01.897Z,76.86
2022-10-29T07:25:29.844Z,76.85
2022-10-29T07:28:06.471Z,76.85
2022-10-29T07:30:34.748Z,77.44
2022-10-29T07:33:02.194Z,76.63
2022-10-29T07:35:29.444Z,76.93
2022-10-29T07:38:09.044Z,77.05
2022-10-29T07:40:39.313Z,76.98
2022-10-29T07:43:06.644Z,77.04
2022-10-29T07:45:35.130Z,76.80
2022-10-29T07:48:04.340Z,76.79
2022-10-29T07:50:32.290Z,76.40
2022-10-29T07:53:00.840Z,76.81
2022-10-29T07:58:02.553Z,76.87
2022-10-29T08:00:33.530Z,76.67
2022-10-29T08:03:06.757Z,76.94
2022-10-29T08:05:34.014Z,76.09
2022-10-29T08:08:01.296Z,76.41
2022-10-29T08:10:30.510Z,76.45
2022-10-29T08:13:02.849Z,76.78
2022-10-29T08:15:31.846Z,76.47
2022-10-29T08:17:59.384Z,76.71
2022-10-29T08:20:28.351Z,76.84
2022-10-29T08:22:55.931Z,76.83
2022-10-29T08:25:26.511Z,77.09
2022-10-29T08:28:06.081Z,76.88
2022-10-29T08:30:36.419Z,76.73
2022-10-29T08:33:04.763Z,76.64
2022-10-29T08:35:32.932Z,76.86
2022-10-29T08:38:00.224Z,76.75
2022-10-29T08:40:29.887Z,77.08
2022-10-29T08:43:34.734Z,77.55
2022-10-29T08:46:04.327Z,77.20
2022-10-29T08:48:49.676Z,77.02
2022-10-29T08:51:39.063Z,77.06
2022-10-29T08:57:19.623Z,77.43
2022-10-29T09:02:40.605Z,77.07
2022-10-29T09:05:15.043Z,77.34
2022-10-29T09:08:25.848Z,77.84
2022-10-29T09:11:25.164Z,77.57
2022-10-29T09:14:13.068Z,77.47
2022-10-29T09:16:43.729Z,77.51
2022-10-29T09:19:32.148Z,77.13
2022-10-29T09:22:20.639Z,76.99
2022-10-29T09:25:06.593Z,77.64
2022-10-29T09:28:13.561Z,77.45
2022-10-29T09:31:11.429Z,77.29
2022-10-29T09:33:40.308Z,77.53
2022-10-29T09:36:20.900Z,78.08
2022-10-29T09:38:59.431Z,77.86
2022-10-29T09:41:32.460Z,77.95
2022-10-29T09:44:31.018Z,78.05
2022-10-29T09:47:19.382Z,77.63
2022-10-29T09:49:52.020Z,77.26
2022-10-29T09:52:21.142Z,77.39
2022-10-29T09:54:53.216Z,77.16
2022-10-29T09:57:27.143Z,77.37
2022-10-29T09:59:58.437Z,77.85
2022-10-29T10:02:42.667Z,77.33
2022-10-29T10:05:12.754Z,77.21
2022-10-29T10:07:42.934Z,76.94
2022-10-29T10:10:24.225Z,77.42
2022-10-29T10:12:51.365Z,77.67
2022-10-29T10:15:30.558Z,77.55
2022-10-29T10:18:07.340Z,77.70
2022-10-29T10:20:38.434Z,77.15
2022-10-29T10:23:27.392Z,77.48
2022-10-29T10:26:00.422Z,77.30
2022-10-29T10:28:35.751Z,77.68
2022-10-29T10:31:14.830Z,77.21
2022-10-29T10:33:51.144Z,77.16
2022-10-29T10:36:22.366Z,77.45
2022-10-29T10:38:52.798Z,76.55
2022-10-29T10:41:29.863Z,77.14
2022-10-29T10:44:04.130Z,77.31
2022-10-29T10:46:41.175Z,77.01
2022-10-29T10:49:17.246Z,76.69
2022-10-29T10:51:55.942Z,76.38
2022-10-29T10:54:42.191Z,77.05
2022-10-29T10:57:24.710Z,76.81
2022-10-29T11:00:39.645Z,76.88
2022-10-29T11:03:40.858Z,77.05
2022-10-29T11:06:30.909Z,76.54
2022-10-29T11:09:43.292Z,76.48
2022-10-29T11:12:45.518Z,76.61
2022-10-29T11:15:32.524Z,76.51
2022-10-29T11:18:19.056Z,76.34
2022-10-29T11:21:14.525Z,76.87
2022-10-29T11:23:42.925Z,76.50
2022-10-29T11:26:19.534Z,76.82
2022-10-29T11:29:00.875Z,76.54
2022-10-29T11:31:47.353Z,76.50
2022-10-29T11:34:23.897Z,76.17
2022-10-29T11:37:17.154Z,76.28
2022-10-29T11:39:55.072Z,76.60
2022-10-29T11:42:31.184Z,76.41
2022-10-29T11:45:02.464Z,76.68
2022-10-29T11:47:39.035Z,76.62
2022-10-29T11:50:52.397Z,76.74
2022-10-29T11:53:55.876Z,76.65
2022-10-29T11:56:50.101Z,76.61
2022-10-29T11:59:42.811Z,76.43
2022-10-29T12:02:16.971Z,76.59
2022-10-29T12:05:37.238Z,75.96
2022-10-29T12:08:26.448Z,76.16
2022-10-29T12:11:13.847Z,75.88
2022-10-29T12:13:56.295Z,76.05
2022-10-29T12:16:32.253Z,75.73
2022-10-29T12:19:30.185Z,75.65
2022-10-29T12:21:59.809Z,76.10
2022-10-29T12:24:42.518Z,76.87
2022-10-29T12:27:16.117Z,76.44
2022-10-29T12:29:47.481Z,76.41
2022-10-29T12:32:41.333Z,76.50
2022-10-29T12:35:16.769Z,76.13
2022-10-29T12:38:13.934Z,76.37
2022-10-29T12:40:52.471Z,76.18
2022-10-29T12:43:27.129Z,76.45
2022-10-29T12:46:19.929Z,76.58
2022-10-29T12:49:12.689Z,76.69
2022-10-29T12:51:54.317Z,76.48
2022-10-29T12:54:31.126Z,76.18
2022-10-29T12:57:14.342Z,76.16
2022-10-29T13:00:19.118Z,76.71
2022-10-29T13:02:46.847Z,76.54
2022-10-29T13:05:16.382Z,76.93
2022-10-29T13:07:54.556Z,76.82
2022-10-29T13:10:26.797Z,76.76
2022-10-29T13:12:59.866Z,76.87
2022-10-29T13:15:32.941Z,76.39
2022-10-29T13:18:18.011Z,76.53
2022-10-29T13:20:51.868Z,76.99
2022-10-29T13:23:21.876Z,76.56
2022-10-29T13:25:58.446Z,76.86
2022-10-29T13:28:28.029Z,77.14
2022-10-29T13:31:06.624Z,77.60
2022-10-29T13:33:33.618Z,76.55
2022-10-29T13:36:29.776Z,77.46
2022-10-29T13:39:06.826Z,77.12
2022-10-29T13:41:50.295Z,77.01
2022-10-29T13:44:22.868Z,77.53
2022-10-29T13:46:53.149Z,77.02
2022-10-29T13:49:44.217Z,77.60
2022-10-29T13:52:22.702Z,77.08
2022-10-29T13:54:49.616Z,77.11
2022-10-29T13:57:27.625Z,77.22
2022-10-29T14:00:13.149Z,77.45
2022-10-29T14:02:43.538Z,77.36
2022-10-29T14:05:28.818Z,77.38
2022-10-29T14:08:21.954Z,77.74
2022-10-29T14:11:02.808Z,76.98
2022-10-29T14:14:05.121Z,78.00
2022-10-29T14:16:33.913Z,77.11
2022-10-29T14:19:15.177Z,77.89
2022-10-29T14:21:51.085Z,77.18
2022-10-29T14:24:19.006Z,77.65
2022-10-29T14:26:46.257Z,77.16
2022-10-29T14:29:30.816Z,77.35
2022-10-29T14:32:20.571Z,77.95
2022-10-29T14:34:51.948Z,77.56
2022-10-29T14:37:51.271Z,78.21
2022-10-29T14:40:23.349Z,77.12
2022-10-29T14:42:59.755Z,77.72
2022-10-29T14:45:30.849Z,77.89
2022-10-29T14:48:02.238Z,77.58
2022-10-29T14:50:34.898Z,77.91
2022-10-29T14:53:33.135Z,78.46
2022-10-29T14:56:18.393Z,78.13
2022-10-29T14:58:46.325Z,77.41
2022-10-29T15:01:17.104Z,77.63
2022-10-29T15:03:47.473Z,77.85
2022-10-29T15:06:30.071Z,77.89
2022-10-29T15:09:06.880Z,78.00
2022-10-29T15:11:40.093Z,78.18
2022-10-29T15:14:32.688Z,77.95
2022-10-29T15:17:00.972Z,77.95
2022-10-29T15:19:28.549Z,77.58
2022-10-29T15:21:55.504Z,78.12
2022-10-29T15:24:24.475Z,78.12
2022-10-29T15:26:59.285Z,77.51
2022-10-29T15:29:34.049Z,77.79
2022-10-29T15:32:02.643Z,78.10
2022-10-29T15:34:36.775Z,77.84
2022-10-29T15:37:19.122Z,77.82
2022-10-29T15:40:17.082Z,78.12
2022-10-29T15:42:48.994Z,77.85
2022-10-29T15:45:22.014Z,78.05
2022-10-29T15:48:16.069Z,78.03
2022-10-29T15:50:45.090Z,77.70
2022-10-29T15:53:15.298Z,77.91
2022-10-29T15:55:43.240Z,77.97
2022-10-29T15:58:19.638Z,78.22
2022-10-29T16:00:46.714Z,78.03
2022-10-29T16:03:22.833Z,77.78
2022-10-29T16:05:53.969Z,78.26
2022-10-29T16:08:33.093Z,77.78
2022-10-29T16:11:03.271Z,78.12
2022-10-29T16:13:31.175Z,78.00
2022-10-29T16:15:58.152Z,78.01
2022-10-29T16:18:25.121Z,78.44
2022-10-29T16:21:03.097Z,77.96
2022-10-29T16:23:36.853Z,78.13
2022-10-29T16:26:04.756Z,78.23
2022-10-29T16:28:31.854Z,77.97
2022-10-29T16:30:59.688Z,77.89
2022-10-29T16:33:27.591Z,77.69
2022-10-29T16:35:54.757Z,78.54
2022-10-29T16:38:21.709Z,78.19
2022-10-29T16:40:51.708Z,77.93
2022-10-29T16:43:18.778Z,78.11
2022-10-29T16:45:45.783Z,78.62
2022-10-29T16:48:18.976Z,78.20
2022-10-29T16:50:46.004Z,78.48
2022-10-29T16:53:13.015Z,78.67
2022-10-29T16:55:44.115Z,78.29
2022-10-29T16:58:16.216Z,78.41
2022-10-29T17:00:43.911Z,78.39
2022-10-29T17:03:12.992Z,78.61
2022-10-29T17:05:42.693Z,78.87
2022-10-29T17:09:00.748Z,79.17
2022-10-29T17:11:36.795Z,78.14
2022-10-29T17:14:06.053Z,78.61
2022-10-29T17:16:41.818Z,78.51
2022-10-29T17:19:11.138Z,78.43
2022-10-29T17:21:46.909Z,78.23
2022-10-29T17:24:16.306Z,78.43
2022-10-29T17:26:43.289Z,78.68
2022-10-29T17:29:10.401Z,78.79
2022-10-29T17:31:42.948Z,78.91
2022-10-29T17:34:10.902Z,78.80
2022-10-29T17:36:42.871Z,78.81
2022-10-29T17:39:10.464Z,78.96
2022-10-29T17:41:42.108Z,79.11
2022-10-29T17:44:15.975Z,79.22
2022-10-29T17:46:55.833Z,78.98
2022-10-29T17:49:23.774Z,79.15
2022-10-29T17:51:57.832Z,79.49
2022-10-29T17:54:45.279Z,79.35
2022-10-29T17:57:46.656Z,79.54
2022-10-29T18:00:14.184Z,79.52
2022-10-29T18:03:07.219Z,80.15
2022-10-29T18:05:37.348Z,79.19
2022-10-29T18:08:04.331Z,79.29
2022-10-29T18:10:35.033Z,79.95
2022-10-29T18:13:02.424Z,79.78
2022-10-29T18:15:54.803Z,80.32
2022-10-29T18:18:21.749Z,79.95
2022-10-29T18:20:48.754Z,79.49
2022-10-29T18:23:15.905Z,79.72
2022-10-29T18:25:43.092Z,79.73
2022-10-29T18:28:10.188Z,79.59
2022-10-29T18:30:37.859Z,80.33
2022-10-29T18:33:09.052Z,80.34
2022-10-29T18:35:49.363Z,80.00
2022-10-29T18:38:16.518Z,80.13
2022-10-29T18:40:43.940Z,79.97
2022-10-29T18:43:12.519Z,80.40
2022-10-29T18:45:43.239Z,80.10
2022-10-29T18:48:12.824Z,80.47
2022-10-29T18:50:44.054Z,80.54
2022-10-29T18:53:11.292Z,80.65
2022-10-29T18:55:42.547Z,80.31
2022-10-29T18:58:09.750Z,80.07
2022-10-29T19:00:36.740Z,80.27
2022-10-29T19:03:04.026Z,80.30
2022-10-29T19:05:37.583Z,80.43
2022-10-29T19:08:06.904Z,80.77
2022-10-29T19:10:44.611Z,80.51
2022-10-29T19:13:11.945Z,80.59
2022-10-29T19:15:42.448Z,80.46
2022-10-29T19:18:09.526Z,80.47
2022-10-29T19:20:36.879Z,80.09
2022-10-29T19:23:04.627Z,80.52
2022-10-29T19:25:42.851Z,80.57
2022-10-29T19:28:09.805Z,80.31
2022-10-29T19:30:44.798Z,80.29
2022-10-29T19:33:12.125Z,80.29
2022-10-29T19:35:48.681Z,80.17
2022-10-29T19:38:15.908Z,80.33
2022-10-29T19:40:45.143Z,80.23
2022-10-29T19:43:12.163Z,80.29
2022-10-29T19:45:57.873Z,80.67
2022-10-29T19:48:54.933Z,80.85
2022-10-29T19:51:30.273Z,80.35
2022-10-29T19:54:01.284Z,80.98
2022-10-29T19:56:54.424Z,80.42
2022-10-29T19:59:21.484Z,80.62
2022-10-29T20:01:49.751Z,81.15
2022-10-29T20:04:16.776Z,80.42
2022-10-29T20:06:45.833Z,81.02
2022-10-29T20:09:12.820Z,80.95
2022-10-29T20:11:45.504Z,80.44
2022-10-29T20:14:15.472Z,80.45
2022-10-29T20:16:43.613Z,80.92
2022-10-29T20:19:11.227Z,80.88
2022-10-29T20:21:44.274Z,80.88
2022-10-29T20:24:11.268Z,81.22
2022-10-29T20:26:56.860Z,81.24
2022-10-29T20:29:25.896Z,80.75
2022-10-29T20:31:57.503Z,80.97
2022-10-29T20:34:29.379Z,81.08
2022-10-29T20:37:07.766Z,80.96
2022-10-29T20:39:46.154Z,80.90
2022-10-29T20:42:13.147Z,80.93
2022-10-29T20:44:44.967Z,80.83
2022-10-29T20:47:13.008Z,80.83
2022-10-29T20:49:48.158Z,81.49
2022-10-29T20:52:15.778Z,80.85
2022-10-29T20:54:44.316Z,81.00
2022-10-29T20:57:11.300Z,81.20
2022-10-29T20:59:38.283Z,81.51
2022-10-29T21:02:07.321Z,81.31
2022-10-29T21:04:37.559Z,80.92
2022-10-29T21:07:04.884Z,80.97
2022-10-29T21:09:36.398Z,81.17
2022-10-29T21:12:04.325Z,81.31
2022-10-29T21:14:46.628Z,81.34
2022-10-29T21:17:13.805Z,81.22
2022-10-29T21:19:45.453Z,81.04
2022-10-29T21:22:15.010Z,80.83
2022-10-29T21:24:46.803Z,81.10
2022-10-29T21:27:13.762Z,81.30
2022-10-29T21:29:48.150Z,81.09
2022-10-29T21:32:17.032Z,80.80
2022-10-29T21:34:44.584Z,80.56
2022-10-29T21:37:11.631Z,80.25
2022-10-29T21:39:50.773Z,81.32
2022-10-29T21:42:17.811Z,80.96
2022-10-29T21:44:44.720Z,80.93
2022-10-29T21:47:11.738Z,81.16
2022-10-29T21:49:38.665Z,81.04
2022-10-29T21:52:08.714Z,80.87
2022-10-29T21:54:36.788Z,81.37
2022-10-29T21:57:03.815Z,80.88
2022-10-29T21:59:39.318Z,81.62
2022-10-29T22:02:08.080Z,81.64
2022-10-29T22:04:47.561Z,81.51
2022-10-29T22:07:14.492Z,81.18
2022-10-29T22:09:46.973Z,81.52
2022-10-29T22:12:14.000Z,81.70
2022-10-29T22:14:49.875Z,81.25
2022-10-29T22:17:16.816Z,81.77
2022-10-29T22:19:45.668Z,81.58
2022-10-29T22:22:12.998Z,81.97
2022-10-29T22:24:48.859Z,81.60
2022-10-29T22:27:16.062Z,82.36
2022-10-29T22:29:54.823Z,82.49
2022-10-29T22:32:21.700Z,81.89
2022-10-29T22:34:48.538Z,82.07
2022-10-29T22:37:15.471Z,81.64
2022-10-29T22:39:48.488Z,81.81
2022-10-29T22:42:16.288Z,82.32
2022-10-29T22:44:44.172Z,81.91
2022-10-29T22:47:11.168Z,81.96
2022-10-29T22:49:38.295Z,81.78
2022-10-29T22:52:05.370Z,82.07
2022-10-29T22:54:49.506Z,81.90
2022-10-29T22:57:16.442Z,81.80
2022-10-29T22:59:48.297Z,82.01
2022-10-29T23:02:15.395Z,81.43
2022-10-29T23:04:45.388Z,81.40
2022-10-29T23:07:12.961Z,81.54
2022-10-29T23:09:40.852Z,82.09
2022-10-29T23:12:13.295Z,81.96
2022-10-29T23:14:41.575Z,81.61
2022-10-29T23:17:09.089Z,81.43
2022-10-29T23:19:37.267Z,81.65
2022-10-29T23:22:04.234Z,81.93
2022-10-29T23:24:32.616Z,81.44
2022-10-29T23:27:00.322Z,81.57
2022-10-29T23:29:27.839Z,81.82
2022-10-29T23:31:55.342Z,82.16
2022-10-29T23:34:22.267Z,81.56
2022-10-29T23:36:49.246Z,81.78
2022-10-29T23:39:16.219Z,81.74
2022-10-29T23:41:43.706Z,81.51
2022-10-29T23:44:10.612Z,81.94
2022-10-29T23:46:37.634Z,81.46
2022-10-29T23:49:04.569Z,81.61
2022-10-29T23:51:32.249Z,81.97
2022-10-29T23:54:00.299Z,81.99
2022-10-29T23:56:27.768Z,82.19
2022-10-29T23:58:57.280Z,81.95
